Flight Track Log - Related Links

Times and Time Zones

All times are in EDT time to prevent confusion due to time zone crossing. See the EJM53 flight status page for this flight to view local times or setup timezone preferences in your user account.

Time Position Orientation Groundspeed Altitude Reporting Facility
EDT Latitude Longitude Course Direction KTS MPH feet Rate Location/Type
Tue 03:48:40 PM 40.7658 -92.8667 79° East 453 521 41,000  Level Minneapolis Center
Tue 03:49:21 PM 40.7808 -92.7675 79° East 453 521 41,000  Level Chicago Center
Tue 03:50:23 PM 40.8081 -92.6039 78° East 455 524 41,000  Level Chicago Center
Tue 03:51:26 PM 40.8342 -92.4414 78° East 454 522 41,000  Level Chicago Center
Tue 03:52:28 PM 40.8661 -92.2456 78° East 456 525 41,000  Level Chicago Center
Tue 03:53:30 PM 40.8928 -92.0819 78° East 458 527 41,000  Level Chicago Center
Tue 03:54:32 PM 40.9186 -91.9183 78° East 457 526 41,000  Level Chicago Center
Tue 03:55:34 PM 40.9433 -91.7553 79° East 457 526 41,000  Level Chicago Center
Tue 03:56:36 PM 40.9700 -91.5908 78° East 459 528 41,000  Level Chicago Center
Tue 03:57:38 PM 40.9969 -91.4142 79° East 459 528 41,000  Level Chicago Center
Tue 03:58:40 PM 41.0219 -91.2481 79° East 460 529 41,000  Level Chicago Center
Tue 03:59:42 PM 41.0531 -91.0478 78° East 462 532 41,000  Level Chicago Center
Tue 04:00:44 PM 41.0764 -90.8792 80° East 465 535 41,000  Level Chicago Center
Tue 04:01:46 PM 41.1017 -90.7117 79° East 464 534 41,000  Level Chicago Center
Tue 04:02:48 PM 41.1272 -90.5439 79° East 463 533 41,000  Level Chicago Center
Tue 04:03:51 PM 41.1508 -90.3747 79° East 464 534 41,000  Level Chicago Center
Tue 04:04:53 PM 41.1742 -90.2067 79° East 461 531 41,000  Level Chicago Center
Tue 04:05:55 PM 41.1986 -90.0381 79° East 462 532 41,000  Level Chicago Center
Tue 04:06:57 PM 41.2219 -89.8678 80° East 466 536 41,000  Level Chicago Center
Tue 04:07:59 PM 41.2497 -89.6642 80° East 464 534 41,000  Level Chicago Center
Tue 04:09:01 PM 41.2736 -89.4936 79° East 467 537 41,000  Level Chicago Center
Tue 04:10:03 PM 41.2958 -89.3231 80° East 468 539 41,000  Level Chicago Center
Tue 04:11:05 PM 41.3194 -89.1481 80° East 465 535 41,000  Level Chicago Center
Tue 04:12:07 PM 41.3422 -88.9783 80° East 476 548 41,000  Level Chicago Center
Tue 04:13:09 PM 41.3631 -88.8078 81° East 474 545 41,000  Level Chicago Center
Tue 04:14:11 PM 41.3881 -88.6044 81° East 468 539 41,000  Level Chicago Center
Tue 04:15:13 PM 41.4100 -88.4344 80° East 469 540 41,000  Level Chicago Center
Tue 04:16:15 PM 41.4319 -88.2633 80° East 469 540 41,000  Level Chicago Center
Tue 04:17:18 PM 41.4544 -88.0844 80° East 488 562 41,000  Level Chicago Center
Tue 04:18:20 PM 41.4792 -87.9131 79° East 473 544 41,000  Level Chicago Center
Tue 04:19:22 PM 41.4972 -87.7281 83° East 471 542 41,000  Level Chicago Center
Tue 04:20:24 PM 41.5169 -87.5594 81° East 464 534 41,000  Level Chicago Center
Tue 04:21:26 PM 41.5361 -87.3925 81° East 459 528 41,000  Level Chicago Center
Tue 04:22:28 PM 41.5597 -87.1889 81° East 465 535 41,000  Level Chicago Center
Tue 04:23:30 PM 41.5789 -87.0194 81° East 466 536 41,000  Level Chicago Center
Tue 04:24:32 PM 41.5975 -86.8500 82° East 466 536 41,000  Level Chicago Center
Tue 04:25:34 PM 41.6147 -86.6828 82° East 469 540 41,000  Level Chicago Center
Tue 04:26:36 PM 41.6353 -86.5097 81° East 473 544 41,000  Level Chicago Center
Tue 04:27:38 PM 41.6564 -86.2997 82° East 475 547 41,000  Level Chicago Center
Tue 04:28:40 PM 41.6756 -86.1247 82° East 478 550 41,000  Level Chicago Center
Tue 04:29:42 PM 41.6933 -85.9486 82° East 479 551 41,000  Level Chicago Center
Tue 04:30:44 PM 41.7119 -85.7714 82° East 478 550 41,000  Level Chicago Center
Tue 04:31:46 PM 41.7308 -85.5939 82° East 479 551 41,000  Level Chicago Center
Tue 04:32:49 PM 41.7481 -85.3967 83° East 476 548 41,000  Level Chicago Center
Tue 04:33:51 PM 41.7672 -85.2261 81° East 490 564 41,000  Level Chicago Center
Tue 04:34:53 PM 41.7844 -85.0450 83° East 497 572 41,000  Level Chicago Center
Tue 04:35:55 PM 41.8033 -84.8267 83° East 496 571 41,000  Level Chicago Center
Tue 04:36:57 PM 41.8211 -84.6447 82° East 494 568 41,000  Level Chicago Center
Tue 04:37:59 PM 41.8375 -84.4628 83° East 494 568 41,000  Level Chicago Center
Tue 04:39:01 PM 41.8539 -84.2808 83° East 493 567 41,000  Level Chicago Center
Tue 04:40:03 PM 41.8686 -84.1003 84° East 489 563 41,000  Level Chicago Center
Tue 04:41:05 PM 41.8842 -83.9189 83° East 491 565 41,000  Level Chicago Center
Tue 04:42:07 PM 41.9025 -83.7008 83° East 491 565 41,000  Level Chicago Center
Tue 04:43:19 PM 41.9192 -83.4828 84° East 489 563 41,000  Level Cleveland Center
Tue 04:44:19 PM 41.9342 -83.2992 84° East 489 563 41,000  Level Cleveland Center
Tue 04:45:19 PM 41.9442 -83.1319 85° East 494 568 41,000  Level Cleveland Center
Tue 04:46:19 PM 41.9564 -82.9481 85° East 499 574 41,000  Level Cleveland Center
Tue 04:47:19 PM 41.9747 -82.7672 82° East 494 568 41,000  Level Cleveland Center
Tue 04:48:19 PM 41.9886 -82.5639 85° East 501 577 41,000  Level Cleveland Center
Tue 04:49:19 PM 42.0000 -82.3797 85° East 495 570 41,000  Level Cleveland Center
Tue 04:50:19 PM 42.0153 -82.1928 84° East 495 570 41,000  Level Cleveland Center
Tue 04:51:19 PM 42.0322 -82.0144 83° East 495 570 41,000  Level Cleveland Center
Tue 04:52:19 PM 42.0408 -81.8272 86° East 495 570 41,000  Level Cleveland Center
Tue 04:53:19 PM 42.0531 -81.6403 85° East 500 575 41,000  Level Cleveland Center
Tue 04:54:19 PM 42.0672 -81.4586 84° East 500 575 41,000  Level Cleveland Center
Tue 04:55:19 PM 42.0789 -81.2714 85° East 493 567 41,000  Level Cleveland Center
Tue 04:56:19 PM 42.0881 -81.0897 86° East 493 567 41,000  Level Cleveland Center
Tue 04:57:19 PM 42.0992 -80.9106 85° East 493 567 41,000  Level Cleveland Center
Tue 04:58:19 PM 42.1078 -80.7428 86° East 493 567 41,000  Level Cleveland Center
Tue 04:59:19 PM 42.1183 -80.5608 85° East 493 567 41,000  Level Cleveland Center
Tue 05:00:19 PM 42.1286 -80.3789 86° East 493 567 41,000  Level Cleveland Center
Tue 05:01:19 PM 42.1511 -80.1939 81° East 493 567 41,000  Level Cleveland Center
Tue 05:02:19 PM 42.1817 -80.0089 77° East 504 580 41,000  Level Cleveland Center
Tue 05:03:19 PM 42.2139 -79.8292 76° East 504 580 41,000  Level Cleveland Center
Tue 05:04:19 PM 42.2500 -79.6267 76° East 499 574 41,000  Level Cleveland Center
Tue 05:05:19 PM 42.2794 -79.4439 78° East 499 574 41,000  Level Cleveland Center
Tue 05:06:19 PM 42.3108 -79.2608 77° East 499 574 41,000  Level Cleveland Center
Tue 05:07:19 PM 42.3419 -79.0775 77° East 493 567 41,000  Level Cleveland Center
Tue 05:08:19 PM 42.3672 -78.9336 77° East 488 562 41,000  Level Cleveland Center
Tue 05:09:19 PM 42.3994 -78.7331 78° East 488 562 41,000  Level Cleveland Center
Tue 05:10:19 PM 42.4297 -78.5494 77° East 488 562 41,000  Level Cleveland Center
Tue 05:11:19 PM 42.4597 -78.3683 77° East 488 562 41,000  Level Cleveland Center
Tue 05:12:19 PM 42.4872 -78.1786 79° East 488 562 41,000  Level Cleveland Center
Tue 05:13:19 PM 42.5147 -77.9972 78° East 488 562 41,000  Level Cleveland Center
Tue 05:14:19 PM 42.5517 -77.7928 76° East 488 562 41,000  Level Cleveland Center
Tue 05:15:19 PM 42.5781 -77.6056 79° East 494 568 41,000  Level Cleveland Center
Tue 05:16:19 PM 42.6064 -77.4122 79° East 494 568 41,000  Level Cleveland Center
Tue 05:17:19 PM 42.6347 -77.2331 78° East 500 575 41,000  Level Cleveland Center
Tue 05:18:08 PM 42.6578 -77.0822 78° East 504 580 41,000  Level Boston Center
Tue 05:19:08 PM 42.6842 -76.8950 79° East 504 580 41,000  Level Boston Center
Tue 05:20:20 PM 42.7153 -76.6767 79° East 499 574 41,000  Level Boston Center
Tue 05:21:20 PM 42.7428 -76.4947 78° East 499 574 41,000  Level Boston Center
Tue 05:22:20 PM 42.7681 -76.3097 79° East 499 574 41,000  Level Boston Center
Tue 05:23:20 PM 42.7969 -76.1275 78° East 499 574 41,000  Level Boston Center
Tue 05:24:20 PM 42.8217 -75.9419 80° East 499 574 41,000  Level Boston Center
Tue 05:25:20 PM 42.8442 -75.7536 81° East 499 574 41,000  Level Boston Center
Tue 05:26:32 PM 42.8700 -75.5678 79° East 499 574 41,000  Level Boston Center
Tue 05:27:32 PM 42.9011 -75.3428 79° East 499 574 41,000  Level Boston Center
Tue 05:28:32 PM 42.9225 -75.1536 81° East 504 580 41,000  Level Boston Center
Tue 05:29:32 PM 42.9497 -74.9675 79° East 504 580 41,000  Level Boston Center
Tue 05:30:32 PM 42.9744 -74.7783 80° East 504 580 41,000  Level Boston Center
Tue 05:31:32 PM 42.9950 -74.5889 81° East 504 580 41,000  Level Boston Center
Tue 05:32:32 PM 43.0189 -74.4167 79° East 509 586 41,000  Level Boston Center
Tue 05:33:32 PM 43.0408 -74.2269 81° East 509 586 41,000  Level Boston Center
Tue 05:34:32 PM 43.0644 -74.0372 80° East 509 586 41,000  Level Boston Center
Tue 05:35:32 PM 43.0878 -73.8472 80° East 504 580 41,000  Level Boston Center
Tue 05:36:32 PM 43.1089 -73.6572 81° East 504 580 41,000  Level Boston Center
Tue 05:37:32 PM 43.1294 -73.4672 82° East 504 580 41,000  Level Boston Center
Tue 05:38:32 PM 43.1603 -73.2569 79° East 504 580 41,000  Level Boston Center
Tue 05:39:32 PM 43.1844 -73.0636 80° East 504 580 41,000  Level Boston Center
Tue 05:40:32 PM 43.2042 -72.8703 82° East 504 580 41,000  Level Boston Center
Tue 05:41:32 PM 43.2256 -72.6822 81° East 504 580 41,000  Level Boston Center
Tue 05:42:32 PM 43.2403 -72.5283 82° East 504 580 41,000  Level Boston Center
Tue 05:43:32 PM 43.2631 -72.3003 82° East 504 580 41,000  Level Boston Center
Tue 05:44:32 PM 43.2794 -72.1436 82° East 504 580 41,000  Level Boston Center
Tue 05:45:44 PM 43.2494 -71.8928 99° East 480 552 41,000  Level Boston Center
Tue 05:46:44 PM 43.2214 -71.7136 102° East 480 552 41,000 -300 Level Boston Center
Tue 05:47:44 PM 43.1969 -71.5317 100° East 485 558 40,400 -800 Descending Boston Center
Tue 05:48:44 PM 43.1706 -71.3497 101° East 485 558 39,400 -1,000 Descending Boston Center
Tue 05:49:44 PM 43.1394 -71.1711 103° East 485 558 38,400 -1,050 Descending Boston Center
Tue 05:50:44 PM 43.1122 -70.9783 101° East 490 564 37,300 -1,300 Descending Boston Center
Tue 05:51:44 PM 43.0825 -70.7914 102° East 496 571 35,800 -1,500 Descending Boston Center
Tue 05:52:44 PM 43.0483 -70.6019 104° East 506 582 34,300 -1,500 Descending Boston Center
Tue 05:53:44 PM 42.9728 -70.4425 123° Southeast 496 571 32,800 -1,500 Descending Boston Center
Tue 05:54:44 PM 42.8625 -70.3467 147° Southeast 456 525 31,300 -1,950 Descending Boston Center
Tue 05:55:44 PM 42.7344 -70.2917 162° South 461 531 28,900 -2,750 Descending Boston Center
Tue 05:56:44 PM 42.6103 -70.2339 161° South 461 531 25,800 -3,000 Descending Boston Center
Tue 05:57:44 PM 42.4928 -70.1931 166° South 461 531 22,900 -2,900 Descending Boston Center
Tue 05:58:44 PM 42.3836 -70.1578 167° South 436 502 20,000 -2,650 Descending Boston Center
Tue 05:59:44 PM 42.2767 -70.1222 166° South 408 470 17,600 -2,550 Descending Boston Center
Tue 06:00:44 PM 42.1758 -70.0897 167° South 392 451 14,900 -2,600 Descending Boston Center
Tue 06:01:44 PM 42.0794 -70.0569 166° South 373 429 12,400 -2,727 Descending Boston Center
Tue 06:02:56 PM 41.9789 -70.0383 172° South 361 415 8,900 -1,875 Descending Boston Center
Tue 06:04:08 PM 41.8742 -70.0117 169° South 329 379 7,900 -909 Descending Boston Center
Tue 06:05:08 PM 41.8008 -70.0006 174° South 290 334 6,900 -1,000 Descending Boston Center
Tue 06:06:08 PM 41.7278 -69.9867 172° South 270 311 5,900 -1,050 Descending Boston Center
Tue 06:07:08 PM 41.6603 -69.9558 161° South 265 305 4,800 -1,050 Descending Boston Center
Tue 06:08:08 PM 41.5911 -69.9364 168° South 260 299 3,800 -1,000 Descending Boston Center
Tue 06:09:08 PM 41.5239 -69.9194 169° South 260 299 2,800 -864 Descending Boston Center
Tue 06:10:20 PM 41.4550 -69.9056 171° South 260 299 1,900 -364 Descending Boston Center
Tue 06:11:20 PM 41.3881 -69.8972 175° South 237 273 2,000 50 Climbing Boston Center
Tue 06:12:20 PM 41.3494 -69.9375 218° Southwest 190 219 2,000 -91 Level Boston Center
Tue 06:13:32 PM 41.3231 -69.9717 224° Southwest 161 185 1,800 -409 Descending Boston Center
Tue 06:14:32 PM 41.3008 -70.0058 229° Southwest 124 143 1,100 -600 Descending Boston Center
Tue 06:15:32 PM 41.2825 -70.0314 226° Southwest 117 135 600 -350 Descending Boston Center
Tue 06:16:32 PM 41.2583 -70.0625 224° Southwest 112 129 400 5,200 Descending Boston Center
Tue 06:17:32 PM 41.2381 -70.0908 226° Southwest 112 129 11,000 10,600 Climbing Boston Center
Tue 06:19:00 PM 41.2531 -70.0603 57° Northeast  Level Estimated
Tue 06:26:00 PM 41.2531 -70.0603 72° East  Level Estimated
Tue 06:27:00 PM 41.2531 -70.0603 72° East  Level Estimated
Tue 06:28:00 PM 41.2531 -70.0603 72° East  Level Estimated
Tue 06:29:00 PM 41.2531 -70.0603 72° East  Level Estimated
Tue 06:30:00 PM 41.2531 -70.0603 72° East  Level Estimated

Login

Don't have an account? Register now (free) for customized features, flight alerts, and more!